createdAt,value
2022-08-17T00:01:52.896Z,71.83
2022-08-17T00:04:24.738Z,72.70
2022-08-17T00:06:53.935Z,71.67
2022-08-17T00:09:23.062Z,72.39
2022-08-17T00:12:41.925Z,72.59
2022-08-17T00:14:42.153Z,73.40
2022-08-17T00:17:11.268Z,73.07
2022-08-17T00:19:42.722Z,73.73
2022-08-17T00:22:32.814Z,73.92
2022-08-17T00:25:03.613Z,73.77
2022-08-17T00:27:35.343Z,73.37
2022-08-17T00:30:06.658Z,73.42
2022-08-17T00:33:14.307Z,73.66
2022-08-17T00:35:30.996Z,73.87
2022-08-17T00:38:00.180Z,73.48
2022-08-17T00:40:39.869Z,74.56
2022-08-17T00:43:19.512Z,74.88
2022-08-17T00:45:49.644Z,73.90
2022-08-17T00:48:29.017Z,74.23
2022-08-17T00:51:10.677Z,74.20
2022-08-17T00:53:44.523Z,74.57
2022-08-17T00:56:19.159Z,75.04
2022-08-17T00:58:49.243Z,74.96
2022-08-17T01:01:21.835Z,74.82
2022-08-17T01:03:53.531Z,74.64
2022-08-17T01:06:30.169Z,75.15
2022-08-17T01:09:03.081Z,74.64
2022-08-17T01:11:35.847Z,74.98
2022-08-17T01:14:05.463Z,75.29
2022-08-17T01:16:34.779Z,74.98
2022-08-17T01:19:08.613Z,75.10
2022-08-17T01:21:47.120Z,75.34
2022-08-17T01:24:19.570Z,75.29
2022-08-17T01:26:49.871Z,75.22
2022-08-17T01:29:20.694Z,75.34
2022-08-17T01:31:55.054Z,75.33
2022-08-17T01:34:24.961Z,75.10
2022-08-17T01:37:06.030Z,74.75
2022-08-17T01:39:40.378Z,75.41
2022-08-17T01:42:17.650Z,75.24
2022-08-17T01:44:47.090Z,75.32
2022-08-17T01:47:16.261Z,75.82
2022-08-17T01:49:49.993Z,75.81
2022-08-17T01:52:21.603Z,75.50
2022-08-17T01:54:55.929Z,75.29
2022-08-17T01:57:25.084Z,75.38
2022-08-17T01:59:54.664Z,75.25
2022-08-17T02:02:31.304Z,75.36
2022-08-17T02:05:01.016Z,75.36
2022-08-17T02:07:32.070Z,74.83
2022-08-17T02:10:23.419Z,75.12
2022-08-17T02:12:52.771Z,74.83
2022-08-17T02:15:23.243Z,74.98
2022-08-17T02:17:54.816Z,75.12
2022-08-17T02:20:41.293Z,75.12
2022-08-17T02:23:14.079Z,74.99
2022-08-17T02:25:50.582Z,74.52
2022-08-17T02:28:20.228Z,74.78
2022-08-17T02:30:50.154Z,75.05
2022-08-17T02:33:41.991Z,75.08
2022-08-17T02:36:14.395Z,75.03
2022-08-17T02:38:44.345Z,75.30
2022-08-17T02:41:16.148Z,75.45
2022-08-17T02:43:48.028Z,75.46
2022-08-17T02:46:19.019Z,75.56
2022-08-17T02:48:48.421Z,75.57
2022-08-17T02:51:18.810Z,75.97
2022-08-17T02:53:48.726Z,75.45
2022-08-17T02:56:19.929Z,75.28
2022-08-17T02:58:49.226Z,75.30
2022-08-17T03:01:18.481Z,75.21
2022-08-17T03:03:47.646Z,75.29
2022-08-17T03:06:16.847Z,75.20
2022-08-17T03:08:46.265Z,74.74
2022-08-17T03:11:15.813Z,74.99
2022-08-17T03:13:47.123Z,75.52
2022-08-17T03:16:16.432Z,75.19
2022-08-17T03:18:45.605Z,75.41
2022-08-17T03:21:14.878Z,75.13
2022-08-17T03:23:44.019Z,74.78
2022-08-17T03:26:15.545Z,75.10
2022-08-17T03:28:47.576Z,75.23
2022-08-17T03:31:18.024Z,74.53
2022-08-17T03:33:47.908Z,74.70
2022-08-17T03:36:17.109Z,74.80
2022-08-17T03:38:46.672Z,75.05
2022-08-17T03:41:16.157Z,74.28
2022-08-17T03:43:47.520Z,73.42
2022-08-17T03:46:35.686Z,72.94
2022-08-17T03:49:19.512Z,72.45
2022-08-17T03:52:01.905Z,72.20
2022-08-17T03:54:44.103Z,71.58
2022-08-17T03:57:13.821Z,71.14
2022-08-17T03:59:45.729Z,71.32
2022-08-17T04:02:19.234Z,71.63
2022-08-17T04:04:50.824Z,70.88
2022-08-17T04:07:21.029Z,69.68
2022-08-17T04:09:50.688Z,69.44
2022-08-17T04:12:22.418Z,68.25
2022-08-17T04:14:54.980Z,67.39
2022-08-17T04:17:26.760Z,66.38
2022-08-17T04:19:58.066Z,65.75
2022-08-17T04:22:30.462Z,65.01
2022-08-17T04:25:09.574Z,64.71
2022-08-17T04:27:39.999Z,64.12
2022-08-17T04:30:13.218Z,64.10
2022-08-17T04:33:00.626Z,63.71
2022-08-17T04:35:38.345Z,63.59
2022-08-17T04:38:08.268Z,63.12
2022-08-17T04:40:51.417Z,62.78
2022-08-17T04:43:23.542Z,62.59
2022-08-17T04:45:58.540Z,62.66
2022-08-17T04:48:36.381Z,62.71
2022-08-17T04:51:10.135Z,62.29
2022-08-17T04:53:41.140Z,62.25
2022-08-17T04:56:15.936Z,62.42
2022-08-17T04:58:47.449Z,61.74
2022-08-17T05:01:24.127Z,61.92
2022-08-17T05:03:54.393Z,61.50
2022-08-17T05:06:31.587Z,61.71
2022-08-17T05:09:03.526Z,61.77
2022-08-17T05:11:35.508Z,61.29
2022-08-17T05:14:05.677Z,61.17
2022-08-17T05:16:36.742Z,61.44
2022-08-17T05:19:06.886Z,60.98
2022-08-17T05:21:36.169Z,61.09
2022-08-17T05:24:06.079Z,60.95
2022-08-17T05:26:56.105Z,60.27
2022-08-17T05:29:35.249Z,60.24
2022-08-17T05:32:37.975Z,60.40
2022-08-17T05:35:02.449Z,60.63
2022-08-17T05:37:33.007Z,60.00
2022-08-17T05:40:02.446Z,60.84
2022-08-17T05:42:32.598Z,59.95
2022-08-17T05:45:02.558Z,60.35
2022-08-17T05:47:35.071Z,59.68
2022-08-17T05:50:09.637Z,59.87
2022-08-17T05:52:47.879Z,59.23
2022-08-17T05:55:27.687Z,58.70
2022-08-17T05:58:09.557Z,58.31
2022-08-17T06:00:44.908Z,58.27
2022-08-17T06:03:41.494Z,58.13
2022-08-17T06:06:32.560Z,58.27
2022-08-17T06:09:24.756Z,57.95
2022-08-17T06:11:59.986Z,57.76
2022-08-17T06:14:43.158Z,57.07
2022-08-17T06:17:15.825Z,56.85
2022-08-17T06:19:54.068Z,56.68
2022-08-17T06:22:28.072Z,56.67
2022-08-17T06:25:04.652Z,56.04
2022-08-17T06:27:44.759Z,55.49
2022-08-17T06:30:19.896Z,55.86
2022-08-17T06:32:52.293Z,55.83
2022-08-17T06:35:31.965Z,55.27
2022-08-17T06:38:36.882Z,54.84
2022-08-17T06:41:11.032Z,54.30
2022-08-17T06:43:53.383Z,54.26
2022-08-17T06:46:27.183Z,53.96
2022-08-17T06:49:11.280Z,53.99
2022-08-17T06:51:47.599Z,53.48
2022-08-17T06:54:27.171Z,53.18
2022-08-17T06:57:02.422Z,53.28
2022-08-17T06:59:55.456Z,52.43
2022-08-17T07:02:52.523Z,52.15
2022-08-17T07:05:27.203Z,51.75
2022-08-17T07:08:04.745Z,50.44
2022-08-17T07:10:41.128Z,50.21
2022-08-17T07:13:28.953Z,49.86
2022-08-17T07:16:08.257Z,49.09
2022-08-17T07:18:37.542Z,48.11
2022-08-17T07:21:26.232Z,47.34
2022-08-17T07:24:29.883Z,46.41
2022-08-17T07:27:15.780Z,46.02
2022-08-17T07:29:53.223Z,45.90
2022-08-17T07:32:26.184Z,46.17
2022-08-17T07:35:15.399Z,45.84
2022-08-17T07:37:50.929Z,45.33
2022-08-17T07:40:29.344Z,44.03
2022-08-17T07:43:23.025Z,43.63
2022-08-17T07:46:13.182Z,43.62
2022-08-17T07:48:44.788Z,43.48
2022-08-17T07:51:29.646Z,42.61
2022-08-17T07:54:14.000Z,42.83
2022-08-17T07:56:51.149Z,42.75
2022-08-17T07:59:23.929Z,41.85
2022-08-17T08:02:08.653Z,41.34
2022-08-17T08:04:59.707Z,41.42
2022-08-17T08:07:34.285Z,41.10
2022-08-17T08:10:08.745Z,41.18
2022-08-17T08:12:43.362Z,40.03
2022-08-17T08:15:18.313Z,39.34
2022-08-17T08:17:51.657Z,39.44
2022-08-17T08:20:52.594Z,38.62
2022-08-17T08:23:26.358Z,38.55
2022-08-17T08:26:06.365Z,38.57
2022-08-17T08:28:48.957Z,38.23
2022-08-17T08:31:27.229Z,38.27
2022-08-17T08:34:44.457Z,38.74
2022-08-17T08:37:16.450Z,38.89
2022-08-17T08:39:57.505Z,38.77
2022-08-17T08:42:34.214Z,38.92
2022-08-17T08:45:13.265Z,38.19
2022-08-17T08:48:05.261Z,37.51
2022-08-17T08:50:49.977Z,37.66
2022-08-17T08:53:31.699Z,37.66
2022-08-17T08:56:05.344Z,37.26
2022-08-17T08:58:43.245Z,37.53
2022-08-17T09:01:24.044Z,37.14
2022-08-17T09:04:25.245Z,37.34
2022-08-17T09:07:08.700Z,37.50
2022-08-17T09:09:50.282Z,37.36
2022-08-17T09:12:27.241Z,36.90
2022-08-17T09:15:03.244Z,37.00
2022-08-17T09:17:47.920Z,36.59
2022-08-17T09:20:27.557Z,36.48
2022-08-17T09:23:02.924Z,36.64
2022-08-17T09:25:36.939Z,36.49
2022-08-17T09:28:12.935Z,36.58
2022-08-17T09:30:46.112Z,36.85
2022-08-17T09:33:22.727Z,37.38
2022-08-17T09:35:57.461Z,36.96
2022-08-17T09:38:39.077Z,36.47
2022-08-17T09:41:18.280Z,36.30
2022-08-17T09:43:55.837Z,36.26
2022-08-17T09:46:32.803Z,36.14
2022-08-17T09:49:12.436Z,36.66
2022-08-17T09:51:48.287Z,36.14
2022-08-17T09:54:38.691Z,35.94
2022-08-17T09:57:31.338Z,36.18
2022-08-17T10:00:18.443Z,35.97
2022-08-17T10:03:11.733Z,36.41
2022-08-17T10:05:50.907Z,35.98
2022-08-17T10:08:37.453Z,35.45
2022-08-17T10:11:22.648Z,35.38
2022-08-17T10:14:36.006Z,35.17
2022-08-17T10:17:05.336Z,35.44
2022-08-17T10:19:44.135Z,35.48
2022-08-17T10:22:42.904Z,35.29
2022-08-17T10:25:48.630Z,34.90
2022-08-17T10:28:28.815Z,35.01
2022-08-17T10:31:33.177Z,35.10
2022-08-17T10:34:04.855Z,35.50
2022-08-17T10:36:47.100Z,35.55
2022-08-17T10:39:31.151Z,35.12
2022-08-17T10:42:06.043Z,35.30
2022-08-17T10:44:46.889Z,34.85
2022-08-17T10:47:19.417Z,35.31
2022-08-17T10:49:53.193Z,35.23
2022-08-17T10:52:53.109Z,35.24
2022-08-17T10:55:25.415Z,34.65
2022-08-17T10:58:20.727Z,35.13
2022-08-17T11:01:01.663Z,35.43
2022-08-17T11:03:33.011Z,34.88
2022-08-17T11:06:13.622Z,35.30
2022-08-17T11:09:13.181Z,34.85
2022-08-17T11:12:08.703Z,34.07
2022-08-17T11:14:56.067Z,34.11
2022-08-17T11:17:49.307Z,34.07
2022-08-17T11:20:48.638Z,34.20
2022-08-17T11:23:32.970Z,34.30
2022-08-17T11:26:08.183Z,33.69
2022-08-17T11:28:54.114Z,33.96
2022-08-17T11:31:39.321Z,34.01
2022-08-17T11:34:19.347Z,34.23
2022-08-17T11:37:11.839Z,34.15
2022-08-17T11:40:05.626Z,34.83
2022-08-17T11:42:48.373Z,34.16
2022-08-17T11:45:35.596Z,33.80
2022-08-17T11:48:28.846Z,33.28
2022-08-17T11:51:24.849Z,32.31
2022-08-17T11:54:34.084Z,32.71
2022-08-17T11:57:41.298Z,32.80
2022-08-17T12:00:32.211Z,33.04
2022-08-17T12:03:26.011Z,33.05
2022-08-17T12:06:05.771Z,33.31
2022-08-17T12:08:36.223Z,33.09
2022-08-17T12:11:11.723Z,33.63
2022-08-17T12:13:49.606Z,33.18
2022-08-17T12:16:21.989Z,33.05
2022-08-17T12:18:57.619Z,33.28
2022-08-17T12:21:37.716Z,33.11
2022-08-17T12:24:16.548Z,33.06
2022-08-17T12:26:54.142Z,31.94
2022-08-17T12:29:38.769Z,32.73
2022-08-17T12:32:17.072Z,32.42
2022-08-17T12:34:51.423Z,31.57
2022-08-17T12:37:24.156Z,31.51
2022-08-17T12:39:59.181Z,32.02
2022-08-17T12:42:34.629Z,32.03
2022-08-17T12:45:07.132Z,32.13
2022-08-17T12:47:39.107Z,32.92
2022-08-17T12:57:35.244Z,32.36
2022-08-17T13:00:12.062Z,32.07
2022-08-17T13:02:46.751Z,32.32
2022-08-17T13:05:29.614Z,32.48
2022-08-17T13:08:04.303Z,31.93
2022-08-17T13:10:36.459Z,32.10
2022-08-17T13:13:22.810Z,31.62
2022-08-17T13:15:55.871Z,31.56
2022-08-17T13:18:39.260Z,32.63
2022-08-17T13:21:13.599Z,31.35
2022-08-17T13:23:53.576Z,31.55
2022-08-17T13:26:33.173Z,31.93
2022-08-17T13:29:08.050Z,32.55
2022-08-17T13:31:52.023Z,32.19
2022-08-17T13:35:12.012Z,31.56
2022-08-17T13:37:35.524Z,31.64
2022-08-17T13:40:29.929Z,31.20
2022-08-17T13:43:01.557Z,31.29
2022-08-17T13:45:50.585Z,31.10
2022-08-17T13:48:31.724Z,31.52
2022-08-17T13:51:30.097Z,31.33
2022-08-17T13:54:02.959Z,31.44
2022-08-17T13:56:39.489Z,32.05
2022-08-17T13:59:12.138Z,32.19
2022-08-17T14:01:50.940Z,32.04
2022-08-17T14:04:24.207Z,31.73
2022-08-17T14:06:55.951Z,31.63
2022-08-17T14:09:27.967Z,31.94
2022-08-17T14:11:59.797Z,31.20
2022-08-17T14:14:30.316Z,31.16
2022-08-17T14:17:01.629Z,31.72
2022-08-17T14:19:31.244Z,31.34
2022-08-17T14:22:00.717Z,31.35
2022-08-17T14:24:34.264Z,31.30
2022-08-17T14:27:06.236Z,30.84
2022-08-17T14:29:36.418Z,30.79
2022-08-17T14:32:23.278Z,31.18
2022-08-17T14:34:54.369Z,31.12
2022-08-17T14:37:27.542Z,31.68
2022-08-17T14:39:57.857Z,31.61
2022-08-17T14:42:29.282Z,31.68
2022-08-17T14:44:59.730Z,31.51
2022-08-17T14:47:30.867Z,32.05
2022-08-17T14:50:01.668Z,32.34
2022-08-17T14:52:33.189Z,32.11
2022-08-17T14:55:02.438Z,32.08
2022-08-17T14:57:34.450Z,32.07
2022-08-17T15:00:04.431Z,32.33
2022-08-17T15:02:45.869Z,31.74
2022-08-17T15:05:17.292Z,32.07
2022-08-17T15:07:46.633Z,32.02
2022-08-17T15:10:17.323Z,32.18
2022-08-17T15:12:46.667Z,31.91
2022-08-17T15:15:17.851Z,32.64
2022-08-17T15:17:50.733Z,32.21
2022-08-17T15:20:22.705Z,32.87
2022-08-17T15:22:54.599Z,32.81
2022-08-17T15:25:25.127Z,32.84
2022-08-17T15:27:55.568Z,32.32
2022-08-17T15:30:26.190Z,33.14
2022-08-17T15:32:59.103Z,33.29
2022-08-17T15:35:32.489Z,33.47
2022-08-17T15:38:10.165Z,33.03
2022-08-17T15:40:45.229Z,33.05
2022-08-17T15:43:16.520Z,33.36
2022-08-17T15:45:54.855Z,32.91
2022-08-17T15:48:42.676Z,32.65
2022-08-17T15:51:14.811Z,32.56
2022-08-17T15:53:45.751Z,33.15
2022-08-17T15:56:16.304Z,33.45
2022-08-17T15:58:47.298Z,33.49
2022-08-17T16:03:01.678Z,33.78
2022-08-17T16:04:30.639Z,33.67
2022-08-17T16:07:02.199Z,33.62
2022-08-17T16:09:31.788Z,33.54
2022-08-17T16:12:10.908Z,33.79
2022-08-17T16:14:40.198Z,34.01
2022-08-17T16:17:38.667Z,34.53
2022-08-17T16:20:01.398Z,34.28
2022-08-17T16:22:34.099Z,34.33
2022-08-17T16:25:07.157Z,34.06
2022-08-17T16:27:36.601Z,34.09
2022-08-17T16:30:07.819Z,33.75
2022-08-17T16:32:37.182Z,34.32
2022-08-17T16:35:14.386Z,34.14
2022-08-17T16:37:45.395Z,33.98
2022-08-17T16:40:19.093Z,34.08
2022-08-17T16:42:49.921Z,34.40
2022-08-17T16:45:24.176Z,34.53
2022-08-17T16:47:58.696Z,34.61
2022-08-17T16:50:32.874Z,34.51
2022-08-17T16:53:07.345Z,34.67
2022-08-17T16:55:37.418Z,34.81
2022-08-17T16:58:08.693Z,34.98
2022-08-17T17:00:37.639Z,34.91
2022-08-17T17:03:20.127Z,35.44
2022-08-17T17:06:07.651Z,35.30
2022-08-17T17:08:44.224Z,35.65
2022-08-17T17:11:18.749Z,35.56
2022-08-17T17:13:53.157Z,36.15
2022-08-17T17:16:30.235Z,35.94
2022-08-17T17:19:10.143Z,35.99
2022-08-17T17:21:49.127Z,35.93
2022-08-17T17:24:26.010Z,36.57
2022-08-17T17:27:12.604Z,36.32
2022-08-17T17:29:56.737Z,36.56
2022-08-17T17:32:33.188Z,36.84
2022-08-17T17:35:11.228Z,36.83
2022-08-17T17:37:49.188Z,36.83
2022-08-17T17:40:23.473Z,37.51
2022-08-17T17:42:55.552Z,37.16
2022-08-17T17:45:27.423Z,37.97
2022-08-17T17:47:56.786Z,38.07
2022-08-17T17:50:40.998Z,38.18
2022-08-17T17:53:35.237Z,38.15
2022-08-17T17:56:44.131Z,38.17
2022-08-17T17:59:23.497Z,38.57
2022-08-17T18:02:02.683Z,38.33
2022-08-17T18:04:36.445Z,38.30
2022-08-17T18:07:19.711Z,39.04
2022-08-17T18:10:02.708Z,38.88
2022-08-17T18:12:39.744Z,39.16
2022-08-17T18:15:24.353Z,39.20
2022-08-17T18:18:33.200Z,39.01
2022-08-17T18:21:07.121Z,39.53
2022-08-17T18:23:36.506Z,39.82
2022-08-17T18:26:08.671Z,39.96
2022-08-17T18:28:43.770Z,39.78
2022-08-17T18:31:18.947Z,40.07
2022-08-17T18:33:50.430Z,40.96
2022-08-17T18:36:30.926Z,40.43
2022-08-17T18:39:17.277Z,40.94
2022-08-17T18:41:50.378Z,41.35
2022-08-17T18:44:28.679Z,41.50
2022-08-17T18:47:14.357Z,41.93
2022-08-17T18:49:44.824Z,41.97
2022-08-17T18:52:18.637Z,42.11
2022-08-17T18:55:04.815Z,42.29
2022-08-17T18:57:38.281Z,42.39
2022-08-17T19:00:14.793Z,42.55
2022-08-17T19:02:56.052Z,43.19
2022-08-17T19:05:34.591Z,43.00
2022-08-17T19:08:35.234Z,42.76
2022-08-17T19:11:09.253Z,43.76
2022-08-17T19:13:44.982Z,44.05
2022-08-17T19:16:20.444Z,44.15
2022-08-17T19:18:54.868Z,44.34
2022-08-17T19:21:29.076Z,44.62
2022-08-17T19:24:07.374Z,45.11
2022-08-17T19:26:54.799Z,45.29
2022-08-17T19:29:35.045Z,45.33
2022-08-17T19:32:09.436Z,45.93
2022-08-17T19:34:44.214Z,45.68
2022-08-17T19:37:23.038Z,46.20
2022-08-17T19:40:04.774Z,46.86
2022-08-17T19:42:47.282Z,46.61
2022-08-17T19:45:35.009Z,46.85
2022-08-17T19:48:16.171Z,47.76
2022-08-17T19:50:54.174Z,47.52
2022-08-17T19:54:01.671Z,47.95
2022-08-17T19:56:32.136Z,48.61
2022-08-17T19:59:10.195Z,48.52
2022-08-17T20:01:50.009Z,49.10
2022-08-17T20:04:32.902Z,48.89
2022-08-17T20:07:09.599Z,48.84
2022-08-17T20:09:41.460Z,49.21
2022-08-17T20:12:16.021Z,49.37
2022-08-17T20:14:53.692Z,49.84
2022-08-17T20:17:32.654Z,49.77
2022-08-17T20:20:19.949Z,49.63
2022-08-17T20:22:55.538Z,49.60
2022-08-17T20:25:33.298Z,49.71
2022-08-17T20:28:08.251Z,50.05
2022-08-17T20:30:41.266Z,50.26
2022-08-17T20:33:26.301Z,50.76
2022-08-17T20:36:16.474Z,50.71
2022-08-17T20:38:48.385Z,50.40
2022-08-17T20:41:20.433Z,50.35
2022-08-17T20:44:04.435Z,50.55
2022-08-17T20:46:57.952Z,51.39
2022-08-17T20:49:41.999Z,51.86
2022-08-17T20:52:13.254Z,51.79
2022-08-17T20:54:54.562Z,51.52
2022-08-17T20:57:51.356Z,51.95
2022-08-17T21:00:44.328Z,52.29
2022-08-17T21:03:51.807Z,52.01
2022-08-17T21:06:30.375Z,52.63
2022-08-17T21:09:20.969Z,52.50
2022-08-17T21:12:05.468Z,52.62
2022-08-17T21:14:57.543Z,53.25
2022-08-17T21:17:49.054Z,53.42
2022-08-17T21:20:34.232Z,53.30
2022-08-17T21:23:22.461Z,53.49
2022-08-17T21:26:07.179Z,53.87
2022-08-17T21:29:01.322Z,54.26
2022-08-17T21:31:36.943Z,54.31
2022-08-17T21:34:29.626Z,54.68
2022-08-17T21:37:34.442Z,54.94
2022-08-17T21:40:24.052Z,55.16
2022-08-17T21:42:57.674Z,55.28
2022-08-17T21:45:31.309Z,55.22
2022-08-17T21:48:14.981Z,55.51
2022-08-17T21:50:49.489Z,55.63
2022-08-17T21:53:32.216Z,55.79
2022-08-17T21:56:05.321Z,56.35
2022-08-17T21:58:39.757Z,56.46
2022-08-17T22:01:26.420Z,56.70
2022-08-17T22:04:08.168Z,56.46
2022-08-17T22:06:41.627Z,57.32
2022-08-17T22:09:18.030Z,57.75
2022-08-17T22:11:59.303Z,57.47
2022-08-17T22:14:52.553Z,57.77
2022-08-17T22:17:24.730Z,57.83
2022-08-17T22:19:56.924Z,57.92
2022-08-17T22:22:56.219Z,58.67
2022-08-17T22:25:25.894Z,57.98
2022-08-17T22:28:01.197Z,58.15
2022-08-17T22:30:36.313Z,58.66
2022-08-17T22:33:37.061Z,58.42
2022-08-17T22:36:24.038Z,58.82
2022-08-17T22:38:55.739Z,59.10
2022-08-17T22:41:34.650Z,59.51
2022-08-17T22:44:29.094Z,59.10
2022-08-17T22:47:06.279Z,58.95
2022-08-17T22:49:54.154Z,59.40
2022-08-17T22:52:56.006Z,59.19
2022-08-17T22:55:39.559Z,59.59
2022-08-17T22:58:30.632Z,58.98
2022-08-17T23:01:26.078Z,59.18
2022-08-17T23:03:57.088Z,60.00
2022-08-17T23:06:26.373Z,60.52
2022-08-17T23:08:57.823Z,60.38
2022-08-17T23:11:36.619Z,60.43
2022-08-17T23:14:21.231Z,60.59
2022-08-17T23:16:52.734Z,60.44
2022-08-17T23:19:23.326Z,60.50
2022-08-17T23:21:54.941Z,60.77
2022-08-17T23:24:24.995Z,60.01
2022-08-17T23:26:54.296Z,60.45
2022-08-17T23:29:23.559Z,60.22
2022-08-17T23:31:57.312Z,60.42
2022-08-17T23:34:27.644Z,60.69
2022-08-17T23:36:57.587Z,60.52
2022-08-17T23:39:28.094Z,60.34
2022-08-17T23:41:58.233Z,60.02
2022-08-17T23:44:33.141Z,60.10
2022-08-17T23:47:07.421Z,60.13
2022-08-17T23:49:41.103Z,59.43
2022-08-17T23:52:15.038Z,60.22
2022-08-17T23:54:48.375Z,60.05
2022-08-17T23:57:20.456Z,60.36
